sensor_id;sensor_type;location;lat;lon;timestamp;temperature;humidity
11908;DHT22;6014;47.690;9.130;2023-03-14T00:01:15;8.60;99.90
11908;DHT22;6014;47.690;9.130;2023-03-14T00:03:44;8.50;99.90
11908;DHT22;6014;47.690;9.130;2023-03-14T00:06:13;8.50;99.90
11908;DHT22;6014;47.690;9.130;2023-03-14T00:08:42;8.50;99.90
11908;DHT22;6014;47.690;9.130;2023-03-14T00:11:12;8.50;99.90
11908;DHT22;6014;47.690;9.130;2023-03-14T00:13:41;8.50;99.90
11908;DHT22;6014;47.690;9.130;2023-03-14T00:16:11;8.50;99.90
11908;DHT22;6014;47.690;9.130;2023-03-14T00:18:41;8.50;99.90
11908;DHT22;6014;47.690;9.130;2023-03-14T00:21:10;8.50;99.90
11908;DHT22;6014;47.690;9.130;2023-03-14T00:23:39;8.50;99.90
11908;DHT22;6014;47.690;9.130;2023-03-14T00:26:09;8.50;99.90
11908;DHT22;6014;47.690;9.130;2023-03-14T00:28:38;8.50;99.90
11908;DHT22;6014;47.690;9.130;2023-03-14T00:31:13;8.50;99.90
11908;DHT22;6014;47.690;9.130;2023-03-14T00:33:44;8.50;99.90
11908;DHT22;6014;47.690;9.130;2023-03-14T00:36:14;8.50;99.90
11908;DHT22;6014;47.690;9.130;2023-03-14T00:38:44;8.50;99.90
11908;DHT22;6014;47.690;9.130;2023-03-14T00:41:14;8.50;99.90
11908;DHT22;6014;47.690;9.130;2023-03-14T00:43:43;8.50;99.90
11908;DHT22;6014;47.690;9.130;2023-03-14T00:46:11;8.50;99.90
11908;DHT22;6014;47.690;9.130;2023-03-14T00:48:40;8.40;99.90
11908;DHT22;6014;47.690;9.130;2023-03-14T00:51:09;8.40;99.90
11908;DHT22;6014;47.690;9.130;2023-03-14T00:53:40;8.40;99.90
11908;DHT22;6014;47.690;9.130;2023-03-14T00:56:10;8.40;99.90
11908;DHT22;6014;47.690;9.130;2023-03-14T00:58:39;8.40;99.90
11908;DHT22;6014;47.690;9.130;2023-03-14T01:01:08;8.30;99.90
11908;DHT22;6014;47.690;9.130;2023-03-14T01:03:37;8.30;99.90
11908;DHT22;6014;47.690;9.130;2023-03-14T01:06:11;8.30;99.90
11908;DHT22;6014;47.690;9.130;2023-03-14T01:08:40;8.30;99.90
11908;DHT22;6014;47.690;9.130;2023-03-14T01:11:34;8.40;99.90
11908;DHT22;6014;47.690;9.130;2023-03-14T01:14:04;8.40;99.90
11908;DHT22;6014;47.690;9.130;2023-03-14T01:16:34;8.40;99.90
11908;DHT22;6014;47.690;9.130;2023-03-14T01:19:02;8.50;99.90
11908;DHT22;6014;47.690;9.130;2023-03-14T01:21:34;8.50;99.90
11908;DHT22;6014;47.690;9.130;2023-03-14T01:24:03;8.50;99.90
11908;DHT22;6014;47.690;9.130;2023-03-14T01:26:33;8.50;99.90
11908;DHT22;6014;47.690;9.130;2023-03-14T01:29:02;8.50;99.90
11908;DHT22;6014;47.690;9.130;2023-03-14T01:31:30;8.50;99.90
11908;DHT22;6014;47.690;9.130;2023-03-14T01:33:58;8.60;99.90
11908;DHT22;6014;47.690;9.130;2023-03-14T01:36:43;8.60;99.90
11908;DHT22;6014;47.690;9.130;2023-03-14T01:39:11;8.60;99.90
11908;DHT22;6014;47.690;9.130;2023-03-14T01:41:40;8.70;99.90
11908;DHT22;6014;47.690;9.130;2023-03-14T01:44:24;8.70;99.90
11908;DHT22;6014;47.690;9.130;2023-03-14T01:46:52;8.80;99.90
11908;DHT22;6014;47.690;9.130;2023-03-14T01:49:26;8.80;99.90
11908;DHT22;6014;47.690;9.130;2023-03-14T01:51:59;8.70;99.90
11908;DHT22;6014;47.690;9.130;2023-03-14T01:54:37;8.70;99.90
11908;DHT22;6014;47.690;9.130;2023-03-14T01:57:10;8.70;99.90
11908;DHT22;6014;47.690;9.130;2023-03-14T01:59:40;8.70;99.90
11908;DHT22;6014;47.690;9.130;2023-03-14T02:02:11;8.60;99.90
11908;DHT22;6014;47.690;9.130;2023-03-14T02:04:49;8.60;99.90
11908;DHT22;6014;47.690;9.130;2023-03-14T02:07:20;8.60;99.90
11908;DHT22;6014;47.690;9.130;2023-03-14T02:09:50;8.50;99.90
11908;DHT22;6014;47.690;9.130;2023-03-14T02:12:20;8.50;99.90
11908;DHT22;6014;47.690;9.130;2023-03-14T02:14:49;8.50;99.90
11908;DHT22;6014;47.690;9.130;2023-03-14T02:17:18;8.50;99.90
11908;DHT22;6014;47.690;9.130;2023-03-14T02:19:57;8.50;99.90
11908;DHT22;6014;47.690;9.130;2023-03-14T02:22:28;8.50;99.90
11908;DHT22;6014;47.690;9.130;2023-03-14T02:25:01;8.40;99.90
11908;DHT22;6014;47.690;9.130;2023-03-14T02:27:33;8.40;99.90
11908;DHT22;6014;47.690;9.130;2023-03-14T02:30:04;8.50;99.90
11908;DHT22;6014;47.690;9.130;2023-03-14T02:32:34;8.50;99.90
11908;DHT22;6014;47.690;9.130;2023-03-14T02:35:08;8.40;99.90
11908;DHT22;6014;47.690;9.130;2023-03-14T02:37:40;8.40;99.90
11908;DHT22;6014;47.690;9.130;2023-03-14T02:40:09;8.40;99.90
11908;DHT22;6014;47.690;9.130;2023-03-14T02:42:39;8.40;99.90
11908;DHT22;6014;47.690;9.130;2023-03-14T02:45:43;8.40;99.90
11908;DHT22;6014;47.690;9.130;2023-03-14T02:48:16;8.40;99.90
11908;DHT22;6014;47.690;9.130;2023-03-14T02:50:45;8.50;99.90
11908;DHT22;6014;47.690;9.130;2023-03-14T02:53:17;8.40;99.90
11908;DHT22;6014;47.690;9.130;2023-03-14T02:55:47;8.40;99.90
11908;DHT22;6014;47.690;9.130;2023-03-14T02:58:17;8.40;99.90
11908;DHT22;6014;47.690;9.130;2023-03-14T03:00:45;8.50;99.90
11908;DHT22;6014;47.690;9.130;2023-03-14T03:03:13;8.60;99.90
11908;DHT22;6014;47.690;9.130;2023-03-14T03:05:41;8.50;99.90
11908;DHT22;6014;47.690;9.130;2023-03-14T03:08:10;8.60;99.90
11908;DHT22;6014;47.690;9.130;2023-03-14T03:10:38;8.50;99.90
11908;DHT22;6014;47.690;9.130;2023-03-14T03:13:06;8.60;99.90
11908;DHT22;6014;47.690;9.130;2023-03-14T03:15:36;8.60;99.90
11908;DHT22;6014;47.690;9.130;2023-03-14T03:18:04;8.50;99.90
11908;DHT22;6014;47.690;9.130;2023-03-14T03:20:32;8.50;99.90
11908;DHT22;6014;47.690;9.130;2023-03-14T03:23:00;8.60;99.90
11908;DHT22;6014;47.690;9.130;2023-03-14T03:25:28;8.50;99.90
11908;DHT22;6014;47.690;9.130;2023-03-14T03:27:57;8.60;99.90
11908;DHT22;6014;47.690;9.130;2023-03-14T03:30:25;8.60;99.90
11908;DHT22;6014;47.690;9.130;2023-03-14T03:32:54;8.60;99.90
11908;DHT22;6014;47.690;9.130;2023-03-14T03:35:22;8.60;99.90
11908;DHT22;6014;47.690;9.130;2023-03-14T03:37:50;8.50;99.90
11908;DHT22;6014;47.690;9.130;2023-03-14T03:40:18;8.60;99.90
11908;DHT22;6014;47.690;9.130;2023-03-14T03:42:46;8.70;99.90
11908;DHT22;6014;47.690;9.130;2023-03-14T03:45:14;8.70;99.90
11908;DHT22;6014;47.690;9.130;2023-03-14T03:47:42;8.60;99.90
11908;DHT22;6014;47.690;9.130;2023-03-14T03:50:12;8.70;99.90
11908;DHT22;6014;47.690;9.130;2023-03-14T03:52:40;8.70;99.90
11908;DHT22;6014;47.690;9.130;2023-03-14T03:55:15;8.70;99.90
11908;DHT22;6014;47.690;9.130;2023-03-14T03:57:43;8.70;99.90
11908;DHT22;6014;47.690;9.130;2023-03-14T04:00:11;8.70;99.90
11908;DHT22;6014;47.690;9.130;2023-03-14T04:02:40;8.70;99.90
11908;DHT22;6014;47.690;9.130;2023-03-14T04:05:08;8.60;99.90
11908;DHT22;6014;47.690;9.130;2023-03-14T04:07:38;8.60;99.90
11908;DHT22;6014;47.690;9.130;2023-03-14T04:10:06;8.60;99.90
11908;DHT22;6014;47.690;9.130;2023-03-14T04:12:34;8.60;99.90
11908;DHT22;6014;47.690;9.130;2023-03-14T04:15:02;8.60;99.90
11908;DHT22;6014;47.690;9.130;2023-03-14T04:17:30;8.60;99.90
11908;DHT22;6014;47.690;9.130;2023-03-14T04:19:58;8.70;99.90
11908;DHT22;6014;47.690;9.130;2023-03-14T04:22:26;8.60;99.90
11908;DHT22;6014;47.690;9.130;2023-03-14T04:24:56;8.50;99.90
11908;DHT22;6014;47.690;9.130;2023-03-14T04:27:24;8.60;99.90
11908;DHT22;6014;47.690;9.130;2023-03-14T04:29:52;8.60;99.90
11908;DHT22;6014;47.690;9.130;2023-03-14T04:32:20;8.60;99.90
11908;DHT22;6014;47.690;9.130;2023-03-14T04:34:48;8.50;99.90
11908;DHT22;6014;47.690;9.130;2023-03-14T04:37:16;8.60;99.90
11908;DHT22;6014;47.690;9.130;2023-03-14T04:39:44;8.50;99.90
11908;DHT22;6014;47.690;9.130;2023-03-14T04:42:13;8.50;99.90
11908;DHT22;6014;47.690;9.130;2023-03-14T04:44:41;8.50;99.90
11908;DHT22;6014;47.690;9.130;2023-03-14T04:47:10;8.40;99.90
11908;DHT22;6014;47.690;9.130;2023-03-14T04:49:38;8.40;99.90
11908;DHT22;6014;47.690;9.130;2023-03-14T04:52:05;8.30;99.90
11908;DHT22;6014;47.690;9.130;2023-03-14T04:54:34;8.30;99.90
11908;DHT22;6014;47.690;9.130;2023-03-14T04:57:02;8.30;99.90
11908;DHT22;6014;47.690;9.130;2023-03-14T04:59:31;8.30;99.90
11908;DHT22;6014;47.690;9.130;2023-03-14T05:01:59;8.30;99.90
11908;DHT22;6014;47.690;9.130;2023-03-14T05:04:27;8.20;99.90
11908;DHT22;6014;47.690;9.130;2023-03-14T05:06:56;8.20;99.90
11908;DHT22;6014;47.690;9.130;2023-03-14T05:09:23;8.10;99.90
11908;DHT22;6014;47.690;9.130;2023-03-14T05:11:52;8.20;99.90
11908;DHT22;6014;47.690;9.130;2023-03-14T05:14:20;8.10;99.90
11908;DHT22;6014;47.690;9.130;2023-03-14T05:16:49;8.20;99.90
11908;DHT22;6014;47.690;9.130;2023-03-14T05:19:17;8.20;99.90
11908;DHT22;6014;47.690;9.130;2023-03-14T05:21:45;8.20;99.90
11908;DHT22;6014;47.690;9.130;2023-03-14T05:24:13;8.10;99.90
11908;DHT22;6014;47.690;9.130;2023-03-14T05:26:41;8.10;99.90
11908;DHT22;6014;47.690;9.130;2023-03-14T05:29:09;8.10;99.90
11908;DHT22;6014;47.690;9.130;2023-03-14T05:31:37;8.10;99.90
11908;DHT22;6014;47.690;9.130;2023-03-14T05:34:07;8.10;99.90
11908;DHT22;6014;47.690;9.130;2023-03-14T05:36:35;8.00;99.90
11908;DHT22;6014;47.690;9.130;2023-03-14T05:39:04;8.00;99.90
11908;DHT22;6014;47.690;9.130;2023-03-14T05:41:32;8.00;99.90
11908;DHT22;6014;47.690;9.130;2023-03-14T05:44:00;8.00;99.90
11908;DHT22;6014;47.690;9.130;2023-03-14T05:46:28;8.00;99.90
11908;DHT22;6014;47.690;9.130;2023-03-14T05:48:57;8.00;99.90
11908;DHT22;6014;47.690;9.130;2023-03-14T05:51:32;8.00;99.90
11908;DHT22;6014;47.690;9.130;2023-03-14T05:54:01;8.00;99.90
11908;DHT22;6014;47.690;9.130;2023-03-14T05:56:29;8.00;99.90
11908;DHT22;6014;47.690;9.130;2023-03-14T05:58:57;7.90;99.90
11908;DHT22;6014;47.690;9.130;2023-03-14T06:01:25;8.00;99.90
11908;DHT22;6014;47.690;9.130;2023-03-14T06:03:53;7.90;99.90
11908;DHT22;6014;47.690;9.130;2023-03-14T06:06:21;7.90;99.90
11908;DHT22;6014;47.690;9.130;2023-03-14T06:08:50;7.90;99.90
11908;DHT22;6014;47.690;9.130;2023-03-14T06:11:18;8.00;99.90
11908;DHT22;6014;47.690;9.130;2023-03-14T06:13:46;7.90;99.90
11908;DHT22;6014;47.690;9.130;2023-03-14T06:16:14;7.90;99.90
11908;DHT22;6014;47.690;9.130;2023-03-14T06:18:53;7.90;99.90
11908;DHT22;6014;47.690;9.130;2023-03-14T06:21:22;7.80;99.90
11908;DHT22;6014;47.690;9.130;2023-03-14T06:23:51;7.80;99.90
11908;DHT22;6014;47.690;9.130;2023-03-14T06:26:19;7.70;99.90
11908;DHT22;6014;47.690;9.130;2023-03-14T06:28:48;7.80;99.90
11908;DHT22;6014;47.690;9.130;2023-03-14T06:31:17;7.80;99.90
11908;DHT22;6014;47.690;9.130;2023-03-14T06:33:45;7.80;99.90
11908;DHT22;6014;47.690;9.130;2023-03-14T06:36:13;7.80;99.90
11908;DHT22;6014;47.690;9.130;2023-03-14T06:38:41;8.00;99.90
11908;DHT22;6014;47.690;9.130;2023-03-14T06:41:10;8.10;99.90
11908;DHT22;6014;47.690;9.130;2023-03-14T06:43:39;8.20;99.90
11908;DHT22;6014;47.690;9.130;2023-03-14T06:46:07;8.20;99.90
11908;DHT22;6014;47.690;9.130;2023-03-14T06:48:35;8.30;99.90
11908;DHT22;6014;47.690;9.130;2023-03-14T06:51:03;8.40;99.90
11908;DHT22;6014;47.690;9.130;2023-03-14T06:53:31;8.50;99.90
11908;DHT22;6014;47.690;9.130;2023-03-14T06:56:00;8.70;99.90
11908;DHT22;6014;47.690;9.130;2023-03-14T06:58:29;8.80;99.90
11908;DHT22;6014;47.690;9.130;2023-03-14T07:00:57;8.80;99.90
11908;DHT22;6014;47.690;9.130;2023-03-14T07:03:25;9.00;99.90
11908;DHT22;6014;47.690;9.130;2023-03-14T07:05:53;9.00;99.90
11908;DHT22;6014;47.690;9.130;2023-03-14T07:08:22;9.20;99.90
11908;DHT22;6014;47.690;9.130;2023-03-14T07:10:50;9.20;99.90
11908;DHT22;6014;47.690;9.130;2023-03-14T07:13:18;9.30;99.90
11908;DHT22;6014;47.690;9.130;2023-03-14T07:15:53;9.40;99.90
11908;DHT22;6014;47.690;9.130;2023-03-14T07:18:21;9.40;99.90
11908;DHT22;6014;47.690;9.130;2023-03-14T07:20:49;9.40;99.90
11908;DHT22;6014;47.690;9.130;2023-03-14T07:23:17;9.50;99.90
11908;DHT22;6014;47.690;9.130;2023-03-14T07:25:46;9.40;99.90
11908;DHT22;6014;47.690;9.130;2023-03-14T07:28:14;9.50;99.90
11908;DHT22;6014;47.690;9.130;2023-03-14T07:30:43;9.60;99.90
11908;DHT22;6014;47.690;9.130;2023-03-14T07:33:12;9.60;99.90
11908;DHT22;6014;47.690;9.130;2023-03-14T07:35:40;9.70;99.90
11908;DHT22;6014;47.690;9.130;2023-03-14T07:38:08;9.80;99.90
11908;DHT22;6014;47.690;9.130;2023-03-14T07:40:36;9.80;99.90
11908;DHT22;6014;47.690;9.130;2023-03-14T07:43:04;9.80;99.90
11908;DHT22;6014;47.690;9.130;2023-03-14T07:45:32;9.80;99.90
11908;DHT22;6014;47.690;9.130;2023-03-14T07:48:08;9.70;99.90
11908;DHT22;6014;47.690;9.130;2023-03-14T07:50:38;9.80;99.90
11908;DHT22;6014;47.690;9.130;2023-03-14T07:53:06;9.80;99.90
11908;DHT22;6014;47.690;9.130;2023-03-14T07:55:34;9.80;99.90
11908;DHT22;6014;47.690;9.130;2023-03-14T07:58:02;9.90;99.90
11908;DHT22;6014;47.690;9.130;2023-03-14T08:00:30;9.90;99.90
11908;DHT22;6014;47.690;9.130;2023-03-14T08:02:58;9.90;99.90
11908;DHT22;6014;47.690;9.130;2023-03-14T08:05:26;9.90;99.90
11908;DHT22;6014;47.690;9.130;2023-03-14T08:07:55;9.90;99.90
11908;DHT22;6014;47.690;9.130;2023-03-14T08:10:23;9.90;99.90
11908;DHT22;6014;47.690;9.130;2023-03-14T08:12:57;10.00;99.90
11908;DHT22;6014;47.690;9.130;2023-03-14T08:15:27;10.00;99.90
11908;DHT22;6014;47.690;9.130;2023-03-14T08:17:56;9.90;99.90
11908;DHT22;6014;47.690;9.130;2023-03-14T08:20:26;10.00;99.90
11908;DHT22;6014;47.690;9.130;2023-03-14T08:22:57;10.00;99.90
11908;DHT22;6014;47.690;9.130;2023-03-14T08:25:26;10.30;99.90
11908;DHT22;6014;47.690;9.130;2023-03-14T08:27:55;10.70;99.90
11908;DHT22;6014;47.690;9.130;2023-03-14T08:30:23;10.80;99.90
11908;DHT22;6014;47.690;9.130;2023-03-14T08:32:56;10.80;99.90
11908;DHT22;6014;47.690;9.130;2023-03-14T08:35:24;10.70;99.90
11908;DHT22;6014;47.690;9.130;2023-03-14T08:37:53;10.60;99.90
11908;DHT22;6014;47.690;9.130;2023-03-14T08:40:22;10.60;99.90
11908;DHT22;6014;47.690;9.130;2023-03-14T08:42:50;10.70;99.90
11908;DHT22;6014;47.690;9.130;2023-03-14T08:45:18;10.80;99.90
11908;DHT22;6014;47.690;9.130;2023-03-14T08:47:46;10.90;99.90
11908;DHT22;6014;47.690;9.130;2023-03-14T08:50:23;10.90;99.90
11908;DHT22;6014;47.690;9.130;2023-03-14T08:53:05;10.90;99.90
11908;DHT22;6014;47.690;9.130;2023-03-14T08:55:55;10.90;99.90
11908;DHT22;6014;47.690;9.130;2023-03-14T08:58:53;10.90;99.90
11908;DHT22;6014;47.690;9.130;2023-03-14T09:01:38;11.10;99.90
11908;DHT22;6014;47.690;9.130;2023-03-14T09:04:22;11.30;99.90
11908;DHT22;6014;47.690;9.130;2023-03-14T09:07:08;11.40;99.90
11908;DHT22;6014;47.690;9.130;2023-03-14T09:10:23;11.40;99.90
11908;DHT22;6014;47.690;9.130;2023-03-14T09:13:21;11.50;99.90
11908;DHT22;6014;47.690;9.130;2023-03-14T09:16:17;11.50;99.90
11908;DHT22;6014;47.690;9.130;2023-03-14T09:19:01;11.90;99.90
11908;DHT22;6014;47.690;9.130;2023-03-14T09:21:55;12.90;99.90
11908;DHT22;6014;47.690;9.130;2023-03-14T09:24:44;13.30;99.90
11908;DHT22;6014;47.690;9.130;2023-03-14T09:27:43;13.60;99.90
11908;DHT22;6014;47.690;9.130;2023-03-14T09:30:45;13.20;99.90
11908;DHT22;6014;47.690;9.130;2023-03-14T09:33:36;12.80;99.90
11908;DHT22;6014;47.690;9.130;2023-03-14T09:36:34;12.30;99.90
11908;DHT22;6014;47.690;9.130;2023-03-14T09:39:31;12.10;99.90
11908;DHT22;6014;47.690;9.130;2023-03-14T09:42:23;12.30;99.90
11908;DHT22;6014;47.690;9.130;2023-03-14T09:45:13;12.50;99.90
11908;DHT22;6014;47.690;9.130;2023-03-14T09:47:59;12.50;99.90
11908;DHT22;6014;47.690;9.130;2023-03-14T09:51:04;12.50;99.90
11908;DHT22;6014;47.690;9.130;2023-03-14T09:54:02;12.50;99.90
11908;DHT22;6014;47.690;9.130;2023-03-14T09:56:59;12.50;99.90
11908;DHT22;6014;47.690;9.130;2023-03-14T09:59:40;12.30;99.90
11908;DHT22;6014;47.690;9.130;2023-03-14T10:02:28;12.10;99.90
11908;DHT22;6014;47.690;9.130;2023-03-14T10:05:27;12.10;99.90
11908;DHT22;6014;47.690;9.130;2023-03-14T10:08:18;12.00;99.90
11908;DHT22;6014;47.690;9.130;2023-03-14T10:11:19;11.90;99.90
11908;DHT22;6014;47.690;9.130;2023-03-14T10:14:13;11.80;99.90
11908;DHT22;6014;47.690;9.130;2023-03-14T10:17:18;11.70;99.90
11908;DHT22;6014;47.690;9.130;2023-03-14T10:20:42;11.60;99.90
11908;DHT22;6014;47.690;9.130;2023-03-14T10:24:15;11.60;99.90
11908;DHT22;6014;47.690;9.130;2023-03-14T10:27:17;11.50;99.90
11908;DHT22;6014;47.690;9.130;2023-03-14T10:30:27;11.50;99.90
11908;DHT22;6014;47.690;9.130;2023-03-14T10:33:26;11.50;99.90
11908;DHT22;6014;47.690;9.130;2023-03-14T10:36:37;11.60;99.90
11908;DHT22;6014;47.690;9.130;2023-03-14T10:39:32;11.60;99.90
11908;DHT22;6014;47.690;9.130;2023-03-14T10:42:31;11.70;99.90
11908;DHT22;6014;47.690;9.130;2023-03-14T10:45:40;11.70;99.90
11908;DHT22;6014;47.690;9.130;2023-03-14T10:48:36;11.60;99.90
11908;DHT22;6014;47.690;9.130;2023-03-14T10:51:32;11.50;99.90
11908;DHT22;6014;47.690;9.130;2023-03-14T10:54:29;11.20;99.90
11908;DHT22;6014;47.690;9.130;2023-03-14T10:57:18;11.10;99.90
11908;DHT22;6014;47.690;9.130;2023-03-14T11:00:13;10.90;99.90
11908;DHT22;6014;47.690;9.130;2023-03-14T11:03:18;10.60;99.90
11908;DHT22;6014;47.690;9.130;2023-03-14T11:06:22;10.30;99.90
11908;DHT22;6014;47.690;9.130;2023-03-14T11:09:31;9.90;99.90
11908;DHT22;6014;47.690;9.130;2023-03-14T11:12:41;9.70;99.90
11908;DHT22;6014;47.690;9.130;2023-03-14T11:15:33;9.60;99.90
11908;DHT22;6014;47.690;9.130;2023-03-14T11:18:51;9.70;99.90
11908;DHT22;6014;47.690;9.130;2023-03-14T11:21:52;9.80;99.90
11908;DHT22;6014;47.690;9.130;2023-03-14T11:25:09;9.90;99.90
11908;DHT22;6014;47.690;9.130;2023-03-14T11:28:06;10.10;99.90
11908;DHT22;6014;47.690;9.130;2023-03-14T11:31:21;10.10;99.90
11908;DHT22;6014;47.690;9.130;2023-03-14T11:34:24;10.00;99.90
11908;DHT22;6014;47.690;9.130;2023-03-14T11:37:07;10.10;99.90
11908;DHT22;6014;47.690;9.130;2023-03-14T11:40:13;9.80;99.90
11908;DHT22;6014;47.690;9.130;2023-03-14T11:43:20;9.60;99.90
11908;DHT22;6014;47.690;9.130;2023-03-14T11:46:19;9.30;99.90
11908;DHT22;6014;47.690;9.130;2023-03-14T11:49:25;9.10;99.90
11908;DHT22;6014;47.690;9.130;2023-03-14T11:52:49;8.90;99.90
11908;DHT22;6014;47.690;9.130;2023-03-14T11:55:43;8.80;99.90
11908;DHT22;6014;47.690;9.130;2023-03-14T11:58:33;8.70;99.90
11908;DHT22;6014;47.690;9.130;2023-03-14T12:01:23;8.80;99.90
11908;DHT22;6014;47.690;9.130;2023-03-14T12:04:21;8.90;99.90
11908;DHT22;6014;47.690;9.130;2023-03-14T12:07:16;8.70;99.90
11908;DHT22;6014;47.690;9.130;2023-03-14T12:09:55;8.50;99.90
11908;DHT22;6014;47.690;9.130;2023-03-14T12:13:06;8.30;99.90
11908;DHT22;6014;47.690;9.130;2023-03-14T12:15:58;8.00;99.90
11908;DHT22;6014;47.690;9.130;2023-03-14T12:18:41;7.80;99.90
11908;DHT22;6014;47.690;9.130;2023-03-14T12:21:34;7.60;99.90
11908;DHT22;6014;47.690;9.130;2023-03-14T12:24:33;7.50;99.90
11908;DHT22;6014;47.690;9.130;2023-03-14T12:28:03;7.40;99.90
11908;DHT22;6014;47.690;9.130;2023-03-14T12:30:47;7.50;99.90
11908;DHT22;6014;47.690;9.130;2023-03-14T12:33:35;7.50;99.90
11908;DHT22;6014;47.690;9.130;2023-03-14T12:36:51;7.50;99.90
11908;DHT22;6014;47.690;9.130;2023-03-14T12:39:58;7.60;99.90
11908;DHT22;6014;47.690;9.130;2023-03-14T12:42:58;7.60;99.90
11908;DHT22;6014;47.690;9.130;2023-03-14T12:46:22;7.60;99.90
11908;DHT22;6014;47.690;9.130;2023-03-14T12:49:32;7.60;99.90
11908;DHT22;6014;47.690;9.130;2023-03-14T12:52:39;7.80;99.90
11908;DHT22;6014;47.690;9.130;2023-03-14T12:55:44;8.00;99.90
11908;DHT22;6014;47.690;9.130;2023-03-14T12:59:16;8.20;99.90
11908;DHT22;6014;47.690;9.130;2023-03-14T13:02:01;8.40;99.90
11908;DHT22;6014;47.690;9.130;2023-03-14T13:04:49;8.70;99.90
11908;DHT22;6014;47.690;9.130;2023-03-14T13:08:08;9.00;99.90
11908;DHT22;6014;47.690;9.130;2023-03-14T13:10:50;9.40;99.90
11908;DHT22;6014;47.690;9.130;2023-03-14T13:13:33;9.80;99.90
11908;DHT22;6014;47.690;9.130;2023-03-14T13:16:19;9.80;99.90
11908;DHT22;6014;47.690;9.130;2023-03-14T13:19:09;9.40;99.90
11908;DHT22;6014;47.690;9.130;2023-03-14T13:22:02;9.50;99.90
11908;DHT22;6014;47.690;9.130;2023-03-14T13:24:45;9.80;99.90
11908;DHT22;6014;47.690;9.130;2023-03-14T13:27:25;9.80;99.90
11908;DHT22;6014;47.690;9.130;2023-03-14T13:30:21;9.50;99.90
11908;DHT22;6014;47.690;9.130;2023-03-14T13:33:21;8.40;99.90
11908;DHT22;6014;47.690;9.130;2023-03-14T13:39:10;7.30;99.90
11908;DHT22;6014;47.690;9.130;2023-03-14T13:41:47;7.00;99.90
11908;DHT22;6014;47.690;9.130;2023-03-14T13:44:33;6.70;99.90
11908;DHT22;6014;47.690;9.130;2023-03-14T13:47:14;6.60;99.90
11908;DHT22;6014;47.690;9.130;2023-03-14T13:50:14;6.80;99.90
11908;DHT22;6014;47.690;9.130;2023-03-14T13:53:09;6.90;99.90
11908;DHT22;6014;47.690;9.130;2023-03-14T13:55:57;7.30;99.90
11908;DHT22;6014;47.690;9.130;2023-03-14T13:58:38;7.50;99.90
11908;DHT22;6014;47.690;9.130;2023-03-14T14:01:18;7.70;99.90
11908;DHT22;6014;47.690;9.130;2023-03-14T14:03:54;8.00;99.90
11908;DHT22;6014;47.690;9.130;2023-03-14T14:06:35;8.30;99.90
11908;DHT22;6014;47.690;9.130;2023-03-14T14:09:18;8.50;99.90
11908;DHT22;6014;47.690;9.130;2023-03-14T14:12:01;8.40;99.90
11908;DHT22;6014;47.690;9.130;2023-03-14T14:14:53;8.50;99.90
11908;DHT22;6014;47.690;9.130;2023-03-14T14:17:32;9.00;99.90
11908;DHT22;6014;47.690;9.130;2023-03-14T14:20:28;9.60;99.90
11908;DHT22;6014;47.690;9.130;2023-03-14T14:23:09;10.00;99.90
11908;DHT22;6014;47.690;9.130;2023-03-14T14:25:51;10.00;99.90
11908;DHT22;6014;47.690;9.130;2023-03-14T14:28:36;10.00;99.90
11908;DHT22;6014;47.690;9.130;2023-03-14T14:31:38;9.80;99.90
11908;DHT22;6014;47.690;9.130;2023-03-14T14:34:23;10.10;99.90
11908;DHT22;6014;47.690;9.130;2023-03-14T14:37:01;10.20;99.30
11908;DHT22;6014;47.690;9.130;2023-03-14T14:39:30;10.00;98.80
11908;DHT22;6014;47.690;9.130;2023-03-14T14:42:12;10.10;98.80
11908;DHT22;6014;47.690;9.130;2023-03-14T14:44:56;10.10;97.70
11908;DHT22;6014;47.690;9.130;2023-03-14T14:47:49;10.00;96.30
11908;DHT22;6014;47.690;9.130;2023-03-14T14:50:49;9.90;94.40
11908;DHT22;6014;47.690;9.130;2023-03-14T14:53:26;9.60;92.80
11908;DHT22;6014;47.690;9.130;2023-03-14T14:56:03;9.60;95.50
11908;DHT22;6014;47.690;9.130;2023-03-14T14:58:48;9.60;93.50
11908;DHT22;6014;47.690;9.130;2023-03-14T15:01:33;9.60;95.00
11908;DHT22;6014;47.690;9.130;2023-03-14T15:04:18;9.50;95.20
11908;DHT22;6014;47.690;9.130;2023-03-14T15:07:07;9.50;92.10
11908;DHT22;6014;47.690;9.130;2023-03-14T15:09:47;9.50;92.60
11908;DHT22;6014;47.690;9.130;2023-03-14T15:12:39;9.40;92.50
11908;DHT22;6014;47.690;9.130;2023-03-14T15:15:21;9.40;93.90
11908;DHT22;6014;47.690;9.130;2023-03-14T15:18:00;9.30;91.60
11908;DHT22;6014;47.690;9.130;2023-03-14T15:20:54;9.30;85.20
11908;DHT22;6014;47.690;9.130;2023-03-14T15:23:32;9.30;88.90
11908;DHT22;6014;47.690;9.130;2023-03-14T15:26:21;9.40;87.70
11908;DHT22;6014;47.690;9.130;2023-03-14T15:29:05;9.60;85.50
11908;DHT22;6014;47.690;9.130;2023-03-14T15:31:40;9.60;84.00
11908;DHT22;6014;47.690;9.130;2023-03-14T15:34:21;9.50;92.50
11908;DHT22;6014;47.690;9.130;2023-03-14T15:37:25;9.30;92.10
11908;DHT22;6014;47.690;9.130;2023-03-14T15:40:11;9.20;96.60
11908;DHT22;6014;47.690;9.130;2023-03-14T15:42:44;9.00;97.00
11908;DHT22;6014;47.690;9.130;2023-03-14T15:45:33;8.90;99.40
11908;DHT22;6014;47.690;9.130;2023-03-14T15:48:19;8.80;99.90
11908;DHT22;6014;47.690;9.130;2023-03-14T15:50:57;8.80;99.90
11908;DHT22;6014;47.690;9.130;2023-03-14T15:53:32;8.80;99.90
11908;DHT22;6014;47.690;9.130;2023-03-14T15:56:23;9.00;99.90
11908;DHT22;6014;47.690;9.130;2023-03-14T15:59:07;9.00;99.90
11908;DHT22;6014;47.690;9.130;2023-03-14T16:01:51;9.30;99.90
11908;DHT22;6014;47.690;9.130;2023-03-14T16:04:52;9.60;99.90
11908;DHT22;6014;47.690;9.130;2023-03-14T16:07:38;9.30;99.90
11908;DHT22;6014;47.690;9.130;2023-03-14T16:10:34;9.60;99.80
11908;DHT22;6014;47.690;9.130;2023-03-14T16:13:15;9.80;93.70
11908;DHT22;6014;47.690;9.130;2023-03-14T16:15:56;10.30;91.70
11908;DHT22;6014;47.690;9.130;2023-03-14T16:18:35;10.80;90.90
11908;DHT22;6014;47.690;9.130;2023-03-14T16:21:31;10.80;85.90
11908;DHT22;6014;47.690;9.130;2023-03-14T16:24:19;10.50;83.80
11908;DHT22;6014;47.690;9.130;2023-03-14T16:27:15;10.20;86.00
11908;DHT22;6014;47.690;9.130;2023-03-14T16:29:55;10.30;87.30
11908;DHT22;6014;47.690;9.130;2023-03-14T16:33:05;10.50;83.80
11908;DHT22;6014;47.690;9.130;2023-03-14T16:36:10;10.70;80.80
11908;DHT22;6014;47.690;9.130;2023-03-14T16:38:54;10.20;81.10
11908;DHT22;6014;47.690;9.130;2023-03-14T16:41:50;9.70;88.40
11908;DHT22;6014;47.690;9.130;2023-03-14T16:44:40;9.40;92.90
11908;DHT22;6014;47.690;9.130;2023-03-14T16:47:30;9.00;96.90
11908;DHT22;6014;47.690;9.130;2023-03-14T16:50:19;8.80;99.90
11908;DHT22;6014;47.690;9.130;2023-03-14T16:53:05;8.60;99.80
11908;DHT22;6014;47.690;9.130;2023-03-14T16:55:49;8.60;99.90
11908;DHT22;6014;47.690;9.130;2023-03-14T16:58:27;8.60;99.90
11908;DHT22;6014;47.690;9.130;2023-03-14T17:01:08;8.50;99.90
11908;DHT22;6014;47.690;9.130;2023-03-14T17:03:53;8.50;99.90
11908;DHT22;6014;47.690;9.130;2023-03-14T17:06:40;8.50;99.90
11908;DHT22;6014;47.690;9.130;2023-03-14T17:09:23;8.50;99.90
11908;DHT22;6014;47.690;9.130;2023-03-14T17:12:21;8.60;99.90
11908;DHT22;6014;47.690;9.130;2023-03-14T17:15:06;8.50;99.90
11908;DHT22;6014;47.690;9.130;2023-03-14T17:17:45;8.50;99.90
11908;DHT22;6014;47.690;9.130;2023-03-14T17:20:38;8.50;99.90
11908;DHT22;6014;47.690;9.130;2023-03-14T17:23:36;8.50;99.90